createdAt,value
2023-05-12T00:00:34.218Z,4.40
2023-05-12T00:01:37.156Z,4.45
2023-05-12T00:02:40.572Z,6.30
2023-05-12T00:03:44.510Z,5.10
2023-05-12T00:04:47.582Z,6.10
2023-05-12T00:05:50.259Z,5.55
2023-05-12T00:06:53.093Z,5.36
2023-05-12T00:07:56.636Z,5.09
2023-05-12T00:09:01.147Z,5.50
2023-05-12T00:10:05.133Z,3.18
2023-05-12T00:11:07.675Z,4.60
2023-05-12T00:12:11.728Z,5.36
2023-05-12T00:13:15.221Z,5.50
2023-05-12T00:14:18.998Z,4.90
2023-05-12T00:15:21.998Z,3.00
2023-05-12T00:16:24.803Z,5.70
2023-05-12T00:17:28.397Z,4.30
2023-05-12T00:18:33.608Z,4.80
2023-05-12T00:19:36.410Z,4.60
2023-05-12T00:20:40.203Z,3.80
2023-05-12T00:21:42.769Z,5.20
2023-05-12T00:22:45.590Z,3.73
2023-05-12T00:23:49.393Z,5.27
2023-05-12T00:24:52.139Z,6.00
2023-05-12T00:25:56.373Z,6.09
2023-05-12T00:26:59.632Z,5.80
2023-05-12T00:28:03.098Z,6.10
2023-05-12T00:29:05.793Z,6.50
2023-05-12T00:30:10.053Z,5.10
2023-05-12T00:31:12.780Z,3.60
2023-05-12T00:32:15.665Z,6.30
2023-05-12T00:33:18.405Z,6.40
2023-05-12T00:34:22.014Z,6.27
2023-05-12T00:35:24.848Z,5.90
2023-05-12T00:36:27.729Z,5.10
2023-05-12T00:37:30.967Z,5.36
2023-05-12T00:38:34.509Z,5.80
2023-05-12T00:39:37.587Z,5.40
2023-05-12T00:40:41.653Z,5.70
2023-05-12T00:41:44.184Z,6.10
2023-05-12T00:42:47.543Z,6.00
2023-05-12T00:43:50.375Z,5.30
2023-05-12T00:44:54.075Z,7.30
2023-05-12T00:45:59.006Z,6.00
2023-05-12T00:47:02.980Z,5.80
2023-05-12T00:48:06.165Z,6.20
2023-05-12T00:49:10.434Z,5.80
2023-05-12T00:50:13.425Z,5.00
2023-05-12T00:51:16.465Z,6.30
2023-05-12T00:52:19.439Z,6.40
2023-05-12T00:53:22.150Z,5.50
2023-05-12T00:54:28.257Z,4.82
2023-05-12T00:55:31.262Z,7.00
2023-05-12T00:56:36.666Z,6.80
2023-05-12T00:57:41.069Z,6.30
2023-05-12T00:58:44.820Z,6.70
2023-05-12T00:59:47.840Z,6.30
2023-05-12T01:00:50.973Z,7.40
2023-05-12T01:01:54.329Z,7.40
2023-05-12T01:02:57.988Z,6.64
2023-05-12T01:04:02.006Z,7.00
2023-05-12T01:05:05.982Z,7.91
2023-05-12T01:06:22.831Z,4.60
2023-05-12T01:07:25.908Z,6.20
2023-05-12T01:08:30.680Z,7.20
2023-05-12T01:09:33.924Z,5.90
2023-05-12T01:10:39.958Z,8.10
2023-05-12T01:11:44.221Z,7.20
2023-05-12T01:12:48.005Z,8.10
2023-05-12T01:13:51.006Z,7.00
2023-05-12T01:14:56.279Z,7.30
2023-05-12T01:16:00.301Z,7.30
2023-05-12T01:17:05.298Z,7.50
2023-05-12T01:18:08.933Z,7.10
2023-05-12T01:20:29.028Z,6.40
2023-05-12T01:21:32.573Z,6.40
2023-05-12T01:22:35.435Z,7.00
2023-05-12T01:23:41.769Z,6.50
2023-05-12T01:24:48.220Z,6.90
2023-05-12T01:25:51.284Z,5.90
2023-05-12T01:26:55.647Z,6.20
2023-05-12T01:27:59.014Z,5.90
2023-05-12T01:29:03.515Z,6.70
2023-05-12T01:30:08.019Z,6.70
2023-05-12T01:31:12.189Z,6.70
2023-05-12T01:32:15.114Z,6.20
2023-05-12T01:33:17.913Z,7.00
2023-05-12T01:34:21.907Z,7.60
2023-05-12T01:35:26.527Z,7.60
2023-05-12T01:36:31.818Z,7.30
2023-05-12T01:37:36.557Z,6.50
2023-05-12T01:38:40.648Z,7.10
2023-05-12T01:39:43.895Z,7.70
2023-05-12T01:40:49.478Z,7.40
2023-05-12T01:41:54.403Z,6.60
2023-05-12T01:42:59.161Z,6.20
2023-05-12T01:44:03.990Z,7.70
2023-05-12T01:45:08.585Z,6.70
2023-05-12T01:46:11.725Z,7.00
2023-05-12T01:47:15.825Z,5.20
2023-05-12T01:48:20.410Z,7.80
2023-05-12T01:49:23.494Z,6.30
2023-05-12T01:50:27.446Z,6.00
2023-05-12T01:51:31.084Z,6.00
2023-05-12T01:52:34.367Z,8.70
2023-05-12T01:53:38.621Z,7.70
2023-05-12T01:54:41.493Z,5.30
2023-05-12T01:55:44.515Z,7.09
2023-05-12T01:56:48.903Z,7.60
2023-05-12T01:57:52.278Z,6.80
2023-05-12T01:58:56.081Z,5.70
2023-05-12T02:00:00.451Z,6.45
2023-05-12T02:01:04.377Z,6.50
2023-05-12T02:02:07.212Z,6.80
2023-05-12T02:03:10.645Z,7.00
2023-05-12T02:04:14.678Z,7.00
2023-05-12T02:05:19.666Z,6.40
2023-05-12T02:06:25.442Z,6.90
2023-05-12T02:07:28.364Z,7.90
2023-05-12T02:08:31.598Z,6.70
2023-05-12T02:09:35.565Z,7.10
2023-05-12T02:10:38.412Z,7.64
2023-05-12T02:11:42.256Z,6.20
2023-05-12T02:12:44.923Z,6.70
2023-05-12T02:13:47.892Z,6.73
2023-05-12T02:14:50.781Z,6.60
2023-05-12T02:15:53.924Z,5.90
2023-05-12T02:16:57.000Z,4.20
2023-05-12T02:18:00.399Z,7.30
2023-05-12T02:19:03.577Z,7.90
2023-05-12T02:20:12.352Z,6.90
2023-05-12T02:21:15.614Z,6.90
2023-05-12T02:22:18.784Z,5.70
2023-05-12T02:23:21.483Z,6.90
2023-05-12T02:24:24.519Z,7.20
2023-05-12T02:25:27.865Z,8.00
2023-05-12T02:26:31.337Z,7.30
2023-05-12T02:27:35.891Z,7.70
2023-05-12T02:28:39.181Z,7.00
2023-05-12T02:29:43.753Z,6.60
2023-05-12T02:30:48.276Z,6.70
2023-05-12T02:31:51.233Z,7.40
2023-05-12T02:32:55.950Z,7.80
2023-05-12T02:33:59.137Z,7.10
2023-05-12T02:35:02.357Z,7.20
2023-05-12T02:36:06.273Z,6.60
2023-05-12T02:37:10.014Z,6.40
2023-05-12T02:38:13.698Z,6.64
2023-05-12T02:39:17.554Z,7.80
2023-05-12T02:40:20.628Z,7.00
2023-05-12T02:41:23.546Z,6.55
2023-05-12T02:42:28.325Z,6.00
2023-05-12T02:43:31.126Z,6.90
2023-05-12T02:44:33.941Z,7.18
2023-05-12T02:45:37.484Z,7.00
2023-05-12T02:46:40.482Z,6.70
2023-05-12T02:47:43.663Z,7.70
2023-05-12T02:48:47.802Z,6.00
2023-05-12T02:49:50.897Z,6.20
2023-05-12T02:50:53.963Z,6.91
2023-05-12T02:51:56.964Z,7.80
2023-05-12T02:53:01.114Z,7.20
2023-05-12T02:54:05.519Z,6.90
2023-05-12T02:55:09.183Z,6.90
2023-05-12T02:56:12.487Z,5.60
2023-05-12T02:57:17.300Z,7.40
2023-05-12T02:58:20.955Z,5.30
2023-05-12T02:59:23.872Z,7.10
2023-05-12T03:01:38.679Z,7.50
2023-05-12T03:02:41.526Z,6.50
2023-05-12T03:03:44.871Z,6.60
2023-05-12T03:04:47.877Z,7.10
2023-05-12T03:05:52.079Z,6.64
2023-05-12T03:08:25.945Z,6.50
2023-05-12T03:09:28.586Z,6.60
2023-05-12T03:10:31.379Z,7.36
2023-05-12T03:11:34.431Z,6.50
2023-05-12T03:12:37.385Z,7.20
2023-05-12T03:13:41.199Z,7.64
2023-05-12T03:14:44.143Z,6.90
2023-05-12T03:15:47.553Z,6.30
2023-05-12T03:16:50.482Z,7.90
2023-05-12T03:17:53.699Z,7.60
2023-05-12T03:18:56.612Z,7.80
2023-05-12T03:19:59.322Z,6.36
2023-05-12T03:21:02.998Z,6.60
2023-05-12T03:22:06.841Z,6.70
2023-05-12T03:23:10.187Z,7.90
2023-05-12T03:24:14.481Z,7.10
2023-05-12T03:25:17.563Z,7.30
2023-05-12T03:26:21.804Z,7.09
2023-05-12T03:27:26.193Z,7.40
2023-05-12T03:28:29.198Z,7.70
2023-05-12T03:29:32.994Z,6.82
2023-05-12T03:30:36.303Z,6.70
2023-05-12T03:31:39.311Z,7.90
2023-05-12T03:33:56.783Z,7.50
2023-05-12T03:35:00.608Z,7.90
2023-05-12T03:36:04.401Z,8.10
2023-05-12T03:37:08.106Z,6.90
2023-05-12T03:38:10.808Z,7.73
2023-05-12T03:39:14.579Z,6.45
2023-05-12T03:40:18.081Z,7.80
2023-05-12T03:41:21.522Z,8.60
2023-05-12T03:42:27.122Z,6.50
2023-05-12T03:43:31.194Z,6.90
2023-05-12T03:44:34.070Z,4.20
2023-05-12T03:45:37.147Z,7.30
2023-05-12T03:46:40.643Z,7.10
2023-05-12T03:47:45.097Z,6.00
2023-05-12T03:48:48.096Z,5.80
2023-05-12T03:49:51.210Z,7.64
2023-05-12T03:50:53.897Z,7.10
2023-05-12T03:51:57.501Z,6.80
2023-05-12T03:53:01.114Z,6.27
2023-05-12T03:54:04.399Z,5.90
2023-05-12T03:55:08.521Z,8.10
2023-05-12T03:56:12.314Z,6.30
2023-05-12T03:57:15.477Z,7.10
2023-05-12T03:58:18.844Z,5.60
2023-05-12T03:59:22.436Z,6.70
2023-05-12T04:00:25.324Z,7.10
2023-05-12T04:01:28.519Z,7.10
2023-05-12T04:02:31.554Z,8.30
2023-05-12T04:03:34.217Z,5.90
2023-05-12T04:04:37.392Z,6.64
2023-05-12T04:05:41.967Z,7.60
2023-05-12T04:06:44.627Z,6.80
2023-05-12T04:07:47.851Z,6.00
2023-05-12T04:08:51.095Z,6.30
2023-05-12T04:09:55.104Z,7.50
2023-05-12T04:11:01.611Z,7.70
2023-05-12T04:12:05.358Z,7.40
2023-05-12T04:13:08.556Z,7.70
2023-05-12T04:14:11.600Z,7.30
2023-05-12T04:15:14.398Z,8.40
2023-05-12T04:16:17.221Z,7.60
2023-05-12T04:17:20.639Z,9.00
2023-05-12T04:18:27.588Z,8.91
2023-05-12T04:19:32.733Z,6.50
2023-05-12T04:20:36.666Z,7.80
2023-05-12T04:21:41.879Z,8.20
2023-05-12T04:23:57.614Z,8.00
2023-05-12T04:25:03.525Z,9.00
2023-05-12T04:26:06.511Z,8.40
2023-05-12T04:27:10.050Z,8.91
2023-05-12T04:28:12.993Z,9.30
2023-05-12T04:29:15.895Z,8.82
2023-05-12T04:30:19.108Z,6.90
2023-05-12T04:31:22.165Z,8.30
2023-05-12T04:32:26.078Z,9.00
2023-05-12T04:33:29.009Z,9.80
2023-05-12T04:34:31.842Z,8.73
2023-05-12T04:35:34.772Z,8.45
2023-05-12T04:36:38.048Z,10.20
2023-05-12T04:37:42.393Z,10.60
2023-05-12T04:38:46.052Z,9.50
2023-05-12T04:39:49.459Z,9.60
2023-05-12T04:40:59.808Z,10.91
2023-05-12T04:42:03.812Z,11.20
2023-05-12T04:44:21.489Z,11.00
2023-05-12T04:45:27.079Z,12.40
2023-05-12T04:46:29.914Z,10.90
2023-05-12T04:47:33.572Z,11.70
2023-05-12T04:48:38.021Z,12.18
2023-05-12T04:49:40.510Z,13.90
2023-05-12T04:50:44.567Z,16.82
2023-05-12T04:51:48.518Z,15.60
2023-05-12T04:52:52.961Z,14.10
2023-05-12T04:53:58.229Z,17.50
2023-05-12T04:55:01.637Z,19.50
2023-05-12T04:57:17.180Z,20.70
2023-05-12T04:58:19.987Z,20.45
2023-05-12T04:59:23.686Z,21.70
2023-05-12T05:00:29.431Z,22.50
2023-05-12T05:01:32.537Z,22.60
2023-05-12T05:02:35.299Z,22.30
2023-05-12T05:03:41.769Z,22.10
2023-05-12T05:04:44.506Z,23.60
2023-05-12T05:05:48.582Z,21.20
2023-05-12T05:06:51.489Z,22.90
2023-05-12T05:07:56.020Z,22.80
2023-05-12T05:09:00.297Z,23.30
2023-05-12T05:10:04.124Z,21.70
2023-05-12T05:11:08.186Z,23.70
2023-05-12T05:12:11.299Z,22.55
2023-05-12T05:13:14.679Z,23.50
2023-05-12T05:14:18.483Z,23.80
2023-05-12T05:15:21.400Z,23.70
2023-05-12T05:16:24.895Z,22.30
2023-05-12T05:17:28.881Z,23.60
2023-05-12T05:18:32.272Z,22.50
2023-05-12T05:19:50.926Z,21.40
2023-05-12T05:20:45.137Z,21.20
2023-05-12T05:21:45.652Z,22.30
2023-05-12T05:22:48.915Z,22.82
2023-05-12T05:23:52.601Z,23.10
2023-05-12T05:24:56.489Z,22.80
2023-05-12T05:25:59.106Z,21.70
2023-05-12T05:27:03.709Z,20.40
2023-05-12T05:28:06.417Z,21.30
2023-05-12T05:29:10.206Z,22.00
2023-05-12T05:30:13.293Z,22.30
2023-05-12T05:31:17.581Z,23.10
2023-05-12T05:32:21.467Z,21.70
2023-05-12T05:33:25.393Z,21.70
2023-05-12T05:34:28.141Z,16.20
2023-05-12T05:35:31.329Z,21.80
2023-05-12T05:36:36.187Z,21.10
2023-05-12T05:37:39.262Z,20.40
2023-05-12T05:38:43.137Z,18.80
2023-05-12T05:39:45.833Z,19.00
2023-05-12T05:40:52.960Z,19.80
2023-05-12T05:41:53.730Z,21.60
2023-05-12T05:42:56.572Z,20.91
2023-05-12T05:44:01.010Z,19.80
2023-05-12T05:45:05.912Z,20.20
2023-05-12T05:47:20.609Z,19.80
2023-05-12T05:49:57.861Z,17.40
2023-05-12T05:51:05.022Z,18.20
2023-05-12T05:52:09.012Z,18.70
2023-05-12T05:53:12.044Z,12.00
2023-05-12T05:54:15.263Z,17.36
2023-05-12T05:55:20.314Z,17.20
2023-05-12T05:56:24.381Z,15.20
2023-05-12T05:57:28.553Z,16.80
2023-05-12T05:58:33.010Z,16.80
2023-05-12T05:59:39.152Z,16.90
2023-05-12T06:00:42.976Z,19.00
2023-05-12T06:01:45.911Z,17.30
2023-05-12T06:02:48.984Z,17.40
2023-05-12T06:03:56.344Z,17.30
2023-05-12T06:05:01.912Z,13.20
2023-05-12T06:06:05.238Z,16.10
2023-05-12T06:07:07.939Z,18.70
2023-05-12T06:08:12.534Z,17.00
2023-05-12T06:09:16.061Z,17.00
2023-05-12T06:10:19.392Z,13.00
2023-05-12T06:11:22.472Z,15.80
2023-05-12T06:12:27.108Z,15.00
2023-05-12T06:13:29.861Z,15.50
2023-05-12T06:14:34.615Z,16.55
2023-05-12T06:15:38.269Z,14.10
2023-05-12T06:16:41.025Z,15.20
2023-05-12T06:17:44.233Z,14.27
2023-05-12T06:18:47.970Z,14.50
2023-05-12T06:19:52.180Z,14.00
2023-05-12T06:20:55.066Z,15.00
2023-05-12T06:21:58.066Z,14.91
2023-05-12T06:23:00.952Z,15.00
2023-05-12T06:24:04.746Z,15.00
2023-05-12T06:25:08.148Z,14.20
2023-05-12T06:26:11.152Z,14.60
2023-05-12T06:27:14.268Z,14.80
2023-05-12T06:28:17.554Z,13.60
2023-05-12T06:29:20.792Z,12.50
2023-05-12T06:30:24.364Z,14.00
2023-05-12T06:31:31.073Z,14.20
2023-05-12T06:32:34.832Z,12.80
2023-05-12T06:33:38.255Z,15.20
2023-05-12T06:34:41.316Z,13.50
2023-05-12T06:35:45.044Z,12.60
2023-05-12T06:36:48.417Z,12.60
2023-05-12T06:37:52.029Z,12.60
2023-05-12T06:38:55.381Z,14.10
2023-05-12T06:39:58.314Z,13.50
2023-05-12T06:41:01.843Z,13.50
2023-05-12T06:42:06.988Z,11.70
2023-05-12T06:43:12.531Z,12.50
2023-05-12T06:44:17.808Z,12.90
2023-05-12T06:45:22.807Z,11.70
2023-05-12T06:46:27.082Z,13.70
2023-05-12T06:47:31.094Z,13.40
2023-05-12T06:48:33.886Z,12.00
2023-05-12T06:49:38.143Z,11.70
2023-05-12T06:50:41.860Z,13.40
2023-05-12T06:51:45.734Z,12.80
2023-05-12T06:52:48.599Z,12.90
2023-05-12T06:53:53.165Z,12.80
2023-05-12T06:54:56.296Z,12.60
2023-05-12T06:55:59.110Z,11.80
2023-05-12T06:57:02.908Z,11.82
2023-05-12T06:58:05.880Z,12.70
2023-05-12T06:59:09.295Z,12.90
2023-05-12T07:00:14.659Z,9.55
2023-05-12T07:01:17.743Z,12.00
2023-05-12T07:02:20.830Z,9.10
2023-05-12T07:03:25.239Z,10.90
2023-05-12T07:04:29.140Z,13.09
2023-05-12T07:05:32.066Z,10.20
2023-05-12T07:06:35.056Z,10.60
2023-05-12T07:07:38.799Z,11.00
2023-05-12T07:08:42.340Z,9.80
2023-05-12T07:09:45.527Z,7.40
2023-05-12T07:10:48.248Z,10.70
2023-05-12T07:11:52.446Z,11.50
2023-05-12T07:12:54.964Z,11.60
2023-05-12T07:13:57.536Z,10.70
2023-05-12T07:15:00.295Z,10.00
2023-05-12T07:16:04.245Z,10.82
2023-05-12T07:17:07.398Z,11.10
2023-05-12T07:18:10.032Z,11.40
2023-05-12T07:19:13.351Z,9.00
2023-05-12T07:20:17.450Z,9.10
2023-05-12T07:21:22.491Z,10.50
2023-05-12T07:22:25.855Z,9.40
2023-05-12T07:23:28.571Z,8.20
2023-05-12T07:24:31.102Z,9.30
2023-05-12T07:25:36.185Z,10.20
2023-05-12T07:26:40.051Z,9.80
2023-05-12T07:27:44.349Z,8.80
2023-05-12T07:28:46.921Z,8.50
2023-05-12T07:29:49.446Z,9.80
2023-05-12T07:30:54.144Z,9.50
2023-05-12T07:31:58.682Z,8.80
2023-05-12T07:33:01.657Z,8.80
2023-05-12T07:34:04.838Z,8.70
2023-05-12T07:35:08.719Z,9.70
2023-05-12T07:36:12.968Z,9.30
2023-05-12T07:37:16.869Z,9.00
2023-05-12T07:38:21.760Z,9.90
2023-05-12T07:39:24.869Z,8.70
2023-05-12T07:40:28.223Z,9.60
2023-05-12T07:41:31.990Z,8.70
2023-05-12T07:42:35.866Z,9.20
2023-05-12T07:43:39.640Z,8.00
2023-05-12T07:44:43.351Z,9.80
2023-05-12T07:45:46.358Z,10.00
2023-05-12T07:46:49.206Z,8.90
2023-05-12T07:47:54.369Z,8.80
2023-05-12T07:48:59.053Z,8.00
2023-05-12T07:50:02.335Z,8.00
2023-05-12T07:51:06.338Z,8.90
2023-05-12T07:52:08.959Z,9.20
2023-05-12T07:53:13.164Z,8.91
2023-05-12T07:54:15.992Z,8.30
2023-05-12T07:55:21.142Z,9.00
2023-05-12T07:56:24.184Z,8.70
2023-05-12T07:57:27.852Z,7.40
2023-05-12T07:58:30.785Z,8.40
2023-05-12T07:59:33.819Z,7.80
2023-05-12T08:00:37.002Z,8.30
2023-05-12T08:01:40.054Z,6.10
2023-05-12T08:02:43.204Z,7.90
2023-05-12T08:03:46.943Z,8.50
2023-05-12T08:04:50.306Z,8.00
2023-05-12T08:05:53.782Z,7.40
2023-05-12T08:06:57.715Z,8.00
2023-05-12T08:08:00.928Z,6.90
2023-05-12T08:09:04.982Z,7.20
2023-05-12T08:10:12.474Z,8.20
2023-05-12T08:11:15.077Z,8.00
2023-05-12T08:12:17.743Z,7.60
2023-05-12T08:13:21.153Z,4.82
2023-05-12T08:14:25.064Z,7.50
2023-05-12T08:15:29.241Z,7.10
2023-05-12T08:16:32.720Z,8.00
2023-05-12T08:17:35.842Z,7.50
2023-05-12T08:18:39.709Z,7.20
2023-05-12T08:19:42.568Z,7.50
2023-05-12T08:20:49.332Z,7.30
2023-05-12T08:21:53.464Z,7.80
2023-05-12T08:22:56.078Z,8.90
2023-05-12T08:23:58.960Z,8.18
2023-05-12T08:25:01.690Z,7.90
2023-05-12T08:26:04.559Z,7.20
2023-05-12T08:27:08.176Z,6.60
2023-05-12T08:28:12.296Z,7.70
2023-05-12T08:29:16.107Z,6.60
2023-05-12T08:30:18.916Z,7.90
2023-05-12T08:31:22.757Z,6.80
2023-05-12T08:32:25.478Z,7.20
2023-05-12T08:33:29.091Z,6.30
2023-05-12T08:34:33.051Z,6.70
2023-05-12T08:35:36.547Z,7.60
2023-05-12T08:36:40.089Z,8.90
2023-05-12T08:37:44.417Z,6.90
2023-05-12T08:38:47.226Z,6.10
2023-05-12T08:39:51.412Z,6.64
2023-05-12T08:41:21.381Z,7.30
2023-05-12T08:42:33.271Z,7.60
2023-05-12T08:43:44.236Z,6.50
2023-05-12T08:44:48.677Z,5.00
2023-05-12T08:45:54.583Z,6.50
2023-05-12T08:46:59.263Z,7.10
2023-05-12T08:48:02.093Z,6.18
2023-05-12T08:49:05.562Z,6.45
2023-05-12T08:50:09.618Z,5.80
2023-05-12T08:51:13.493Z,4.50
2023-05-12T08:52:18.055Z,6.00
2023-05-12T08:53:21.852Z,7.20
2023-05-12T08:54:24.631Z,7.30
2023-05-12T08:55:31.752Z,0.27
2023-05-12T08:57:39.769Z,7.20
2023-05-12T08:58:42.798Z,6.40
2023-05-12T08:59:45.772Z,7.00
2023-05-12T09:00:51.448Z,7.36
2023-05-12T09:01:54.430Z,7.30
2023-05-12T09:02:59.239Z,7.60
2023-05-12T09:04:04.427Z,6.30
2023-05-12T09:05:09.383Z,7.50
2023-05-12T09:06:12.758Z,6.60
2023-05-12T09:07:15.561Z,7.20
2023-05-12T09:08:18.395Z,4.73
2023-05-12T09:09:21.658Z,6.36
2023-05-12T09:11:29.641Z,7.00
2023-05-12T09:12:35.222Z,6.73
2023-05-12T09:14:07.496Z,6.80
2023-05-12T09:15:11.877Z,6.30
2023-05-12T09:16:15.653Z,2.50
2023-05-12T09:17:18.440Z,7.00
2023-05-12T09:18:22.231Z,7.00
2023-05-12T09:19:25.210Z,6.60
2023-05-12T09:20:31.921Z,6.10
2023-05-12T09:21:33.566Z,5.40
2023-05-12T09:22:37.378Z,5.50
2023-05-12T09:23:54.313Z,6.00
2023-05-12T09:24:58.554Z,5.90
2023-05-12T09:26:01.858Z,4.40
2023-05-12T09:27:05.235Z,5.50
2023-05-12T09:28:09.698Z,6.00
2023-05-12T09:29:20.808Z,3.20
2023-05-12T09:30:21.902Z,4.00
2023-05-12T09:31:25.722Z,5.00
2023-05-12T09:32:32.757Z,5.90
2023-05-12T09:33:36.216Z,5.70
2023-05-12T09:34:40.383Z,6.30
2023-05-12T09:35:45.227Z,5.80
2023-05-12T09:37:02.131Z,5.20
2023-05-12T09:38:08.085Z,6.10
2023-05-12T09:39:12.176Z,1.40
2023-05-12T09:40:16.796Z,6.00
2023-05-12T09:41:22.873Z,6.40
2023-05-12T09:42:26.640Z,7.00
2023-05-12T09:43:29.818Z,5.90
2023-05-12T09:44:32.724Z,6.10
2023-05-12T09:46:51.195Z,5.80
2023-05-12T09:47:53.724Z,5.20
2023-05-12T09:48:56.767Z,5.82
2023-05-12T09:50:04.037Z,7.00
2023-05-12T09:51:11.067Z,5.50
2023-05-12T09:52:13.846Z,6.60
2023-05-12T09:53:17.845Z,5.80
2023-05-12T09:54:28.607Z,6.80
2023-05-12T09:55:32.325Z,5.80
2023-05-12T09:56:37.666Z,6.20
2023-05-12T09:57:41.968Z,6.10
2023-05-12T09:58:47.211Z,5.90
2023-05-12T09:59:50.729Z,7.30
2023-05-12T10:02:01.963Z,6.80
2023-05-12T10:03:13.849Z,6.30
2023-05-12T10:04:16.625Z,6.10
2023-05-12T10:05:20.734Z,6.00
2023-05-12T10:06:27.953Z,5.90
2023-05-12T10:07:31.913Z,6.90
2023-05-12T10:09:52.205Z,5.90
2023-05-12T10:10:57.217Z,5.30
2023-05-12T10:12:00.093Z,5.60
2023-05-12T10:13:04.036Z,5.90
2023-05-12T10:14:08.667Z,5.20
2023-05-12T10:15:12.466Z,5.90
2023-05-12T10:17:19.287Z,5.90
2023-05-12T10:18:25.990Z,6.70
2023-05-12T10:19:30.160Z,6.30
2023-05-12T10:20:33.335Z,5.70
2023-05-12T10:21:37.098Z,5.80
2023-05-12T10:22:40.589Z,6.50
2023-05-12T10:23:44.831Z,5.55
2023-05-12T10:24:48.318Z,6.00
2023-05-12T10:25:51.050Z,5.20
2023-05-12T10:26:55.968Z,6.09
2023-05-12T10:27:58.836Z,5.70
2023-05-12T10:29:01.376Z,5.55
2023-05-12T10:30:06.685Z,5.70
2023-05-12T10:33:15.212Z,5.50
2023-05-12T10:34:19.290Z,5.80
2023-05-12T10:35:35.860Z,4.10
2023-05-12T10:36:49.712Z,5.50
2023-05-12T10:37:54.122Z,5.50
2023-05-12T10:39:05.634Z,7.00
2023-05-12T10:40:10.694Z,6.70
2023-05-12T10:41:14.243Z,8.40
2023-05-12T10:42:19.655Z,14.00
2023-05-12T10:43:26.071Z,12.80
2023-05-12T10:44:29.904Z,14.50
2023-05-12T10:45:36.798Z,13.00
2023-05-12T10:46:39.565Z,15.30
2023-05-12T10:47:43.224Z,14.00
2023-05-12T10:48:55.754Z,14.40
2023-05-12T10:49:58.967Z,12.30
2023-05-12T10:51:09.840Z,14.70
2023-05-12T10:52:13.871Z,12.20
2023-05-12T10:53:16.607Z,13.30
2023-05-12T10:54:22.137Z,8.27
2023-05-12T10:55:33.716Z,14.10
2023-05-12T10:56:42.787Z,9.90
2023-05-12T10:57:50.439Z,10.20
2023-05-12T10:59:14.140Z,15.60
2023-05-12T11:00:23.320Z,12.90
2023-05-12T11:01:27.594Z,12.10
2023-05-12T11:02:34.909Z,14.80
2023-05-12T11:03:38.622Z,13.30
2023-05-12T11:04:46.707Z,10.20
2023-05-12T11:06:01.238Z,12.40
2023-05-12T11:07:06.114Z,13.20
2023-05-12T11:08:11.608Z,11.90
2023-05-12T11:09:17.754Z,11.00
2023-05-12T11:10:24.306Z,13.20
2023-05-12T11:11:29.681Z,10.10
2023-05-12T11:12:34.660Z,11.90
2023-05-12T11:13:37.195Z,10.70
2023-05-12T11:15:55.562Z,9.00
2023-05-12T11:17:02.975Z,11.60
2023-05-12T11:18:05.812Z,9.10
2023-05-12T11:19:09.440Z,9.20
2023-05-12T11:20:23.326Z,10.40
2023-05-12T11:21:25.893Z,8.80
2023-05-12T11:22:29.302Z,8.20
2023-05-12T11:23:33.005Z,8.30
2023-05-12T11:24:37.110Z,8.50
2023-05-12T11:25:41.595Z,7.30
2023-05-12T11:26:46.060Z,6.70
2023-05-12T11:27:51.719Z,6.80
2023-05-12T11:28:59.822Z,6.60
2023-05-12T11:30:03.821Z,5.80
2023-05-12T11:31:06.985Z,6.40
2023-05-12T11:32:11.767Z,6.00
2023-05-12T11:34:26.709Z,6.50
2023-05-12T11:35:30.852Z,6.50
2023-05-12T11:36:40.789Z,7.00
2023-05-12T11:37:44.669Z,5.70
2023-05-12T11:38:50.863Z,5.90
2023-05-12T11:39:53.694Z,5.50
2023-05-12T11:40:56.366Z,6.20
2023-05-12T11:42:12.749Z,5.40
2023-05-12T11:43:12.090Z,5.30
2023-05-12T11:44:20.783Z,4.82
2023-05-12T11:45:30.059Z,3.80
2023-05-12T11:46:33.089Z,7.60
2023-05-12T11:47:37.094Z,8.80
2023-05-12T11:48:39.921Z,13.18
2023-05-12T11:49:49.267Z,12.40
2023-05-12T11:50:53.293Z,10.40
2023-05-12T11:52:02.629Z,14.00
2023-05-12T11:53:07.819Z,13.20
2023-05-12T11:54:10.819Z,12.30
2023-05-12T11:55:17.240Z,14.60
2023-05-12T11:56:21.703Z,15.00
2023-05-12T11:57:32.317Z,12.40
2023-05-12T11:58:35.876Z,14.50
2023-05-12T11:59:40.247Z,14.80
2023-05-12T12:00:43.887Z,15.00
2023-05-12T12:01:46.844Z,15.50
2023-05-12T12:02:49.690Z,15.27
2023-05-12T12:03:53.545Z,12.10
2023-05-12T12:04:56.934Z,11.80
2023-05-12T12:06:00.863Z,14.40
2023-05-12T12:07:05.287Z,13.40
2023-05-12T12:08:10.156Z,13.40
2023-05-12T12:10:25.413Z,13.70
2023-05-12T12:11:29.992Z,12.60
2023-05-12T12:12:32.843Z,12.90
2023-05-12T12:13:35.361Z,11.91
2023-05-12T12:15:52.166Z,10.60
2023-05-12T12:18:07.952Z,12.00
2023-05-12T12:19:12.366Z,10.90
2023-05-12T12:20:18.279Z,10.90
2023-05-12T12:22:33.710Z,10.40
2023-05-12T12:23:50.031Z,10.80
2023-05-12T12:24:40.857Z,9.80
2023-05-12T12:25:43.761Z,10.36
2023-05-12T12:28:00.270Z,9.20
2023-05-12T12:29:03.681Z,10.50
2023-05-12T12:30:07.907Z,10.10
2023-05-12T12:31:11.360Z,7.40
2023-05-12T12:32:14.303Z,10.10
2023-05-12T12:33:18.862Z,9.45
2023-05-12T12:34:22.043Z,8.00
2023-05-12T12:35:25.104Z,9.10
2023-05-12T12:36:28.690Z,8.80
2023-05-12T12:37:32.595Z,7.40
2023-05-12T12:38:35.367Z,8.20
2023-05-12T12:39:37.963Z,7.27
2023-05-12T12:40:42.039Z,8.00
2023-05-12T12:41:46.555Z,7.60
2023-05-12T12:42:50.069Z,7.60
2023-05-12T12:43:53.381Z,6.00
2023-05-12T12:44:56.163Z,7.50
2023-05-12T12:45:59.295Z,7.60
2023-05-12T12:47:02.998Z,7.91
2023-05-12T12:48:08.217Z,6.80
2023-05-12T12:49:11.612Z,8.20
2023-05-12T12:50:15.594Z,8.80
2023-05-12T12:51:18.389Z,8.70
2023-05-12T12:52:20.938Z,8.40
2023-05-12T12:53:23.475Z,7.40
2023-05-12T12:54:27.838Z,7.18
2023-05-12T12:55:31.108Z,8.00
2023-05-12T12:56:34.080Z,8.30
2023-05-12T12:57:39.766Z,8.60
2023-05-12T12:58:42.550Z,7.90
2023-05-12T12:59:45.272Z,6.91
2023-05-12T13:00:48.346Z,7.36
2023-05-12T13:01:51.855Z,6.90
2023-05-12T13:02:55.808Z,7.20
2023-05-12T13:03:59.910Z,7.70
2023-05-12T13:06:38.040Z,7.00
2023-05-12T13:07:41.697Z,6.20
2023-05-12T13:08:44.377Z,7.10
2023-05-12T13:09:47.546Z,5.80
2023-05-12T13:10:50.735Z,5.91
2023-05-12T13:11:54.183Z,6.40
2023-05-12T13:12:58.269Z,6.50
2023-05-12T13:14:01.677Z,6.30
2023-05-12T13:15:05.370Z,5.70
2023-05-12T13:16:09.501Z,5.10
2023-05-12T13:17:12.662Z,5.50
2023-05-12T13:18:15.865Z,4.70
2023-05-12T13:19:18.897Z,5.00
2023-05-12T13:20:22.865Z,4.30
2023-05-12T13:21:27.245Z,5.50
2023-05-12T13:22:31.285Z,4.70
2023-05-12T13:23:33.903Z,5.00
2023-05-12T13:24:36.578Z,5.20
2023-05-12T13:25:39.580Z,4.90
2023-05-12T13:26:43.065Z,4.00
2023-05-12T13:27:46.230Z,4.00
2023-05-12T13:28:49.720Z,2.90
2023-05-12T13:29:52.658Z,3.50
2023-05-12T13:30:55.617Z,4.50
2023-05-12T13:31:58.305Z,5.73
2023-05-12T13:33:01.333Z,4.90
2023-05-12T13:34:04.818Z,4.20
2023-05-12T13:36:20.529Z,4.60
2023-05-12T13:37:24.216Z,5.10
2023-05-12T13:38:27.045Z,6.10
2023-05-12T13:39:30.138Z,5.70
2023-05-12T13:40:34.920Z,4.70
2023-05-12T13:41:38.419Z,5.40
2023-05-12T13:42:41.399Z,4.80
2023-05-12T13:43:46.235Z,5.50
2023-05-12T13:44:51.340Z,4.90
2023-05-12T13:45:55.069Z,5.70
2023-05-12T13:46:59.658Z,4.90
2023-05-12T13:48:02.625Z,4.60
2023-05-12T13:49:05.715Z,5.27
2023-05-12T13:50:09.125Z,3.10
2023-05-12T13:51:12.485Z,4.60
2023-05-12T13:52:15.577Z,3.90
2023-05-12T13:53:19.065Z,3.90
2023-05-12T13:54:21.968Z,4.70
2023-05-12T13:55:25.618Z,2.91
2023-05-12T13:56:29.363Z,3.60
2023-05-12T13:57:32.046Z,4.50
2023-05-12T13:58:35.959Z,4.80
2023-05-12T13:59:38.559Z,4.80
2023-05-12T14:00:41.200Z,5.50
2023-05-12T14:02:57.127Z,5.00
2023-05-12T14:05:12.605Z,4.40
2023-05-12T14:06:16.585Z,4.50
2023-05-12T14:07:21.482Z,4.40
2023-05-12T14:08:25.170Z,4.50
2023-05-12T14:09:29.586Z,4.18
2023-05-12T14:10:32.809Z,4.80
2023-05-12T14:11:35.586Z,4.80
2023-05-12T14:12:38.446Z,4.50
2023-05-12T14:13:41.482Z,3.50
2023-05-12T14:14:48.411Z,4.60
2023-05-12T14:15:51.822Z,4.50
2023-05-12T14:16:55.233Z,4.60
2023-05-12T14:17:58.404Z,4.91
2023-05-12T14:19:01.065Z,4.50
2023-05-12T14:20:08.075Z,5.60
2023-05-12T14:21:14.180Z,3.30
2023-05-12T14:22:25.469Z,5.50
2023-05-12T14:23:21.846Z,5.70
2023-05-12T14:24:24.413Z,5.80
2023-05-12T14:25:29.101Z,4.60
2023-05-12T14:26:31.813Z,5.70
2023-05-12T14:27:35.026Z,5.09
2023-05-12T14:28:38.263Z,5.10
2023-05-12T14:29:41.402Z,5.40
2023-05-12T14:30:44.586Z,5.60
2023-05-12T14:31:47.737Z,5.27
2023-05-12T14:32:52.172Z,5.00
2023-05-12T14:33:55.797Z,5.80
2023-05-12T14:34:58.709Z,5.70
2023-05-12T14:36:07.465Z,5.40
2023-05-12T14:37:05.946Z,6.50
2023-05-12T14:38:09.675Z,5.30
2023-05-12T14:39:13.383Z,6.90
2023-05-12T14:40:16.497Z,6.50